createdAt,value
2018-06-30T00:01:18.494Z,60.09
2018-06-30T00:06:22.544Z,59.55
2018-06-30T00:11:25.624Z,59.97
2018-06-30T00:16:28.682Z,60.76
2018-06-30T00:21:31.769Z,60.90
2018-06-30T00:26:34.812Z,61.00
2018-06-30T00:31:37.824Z,60.67
2018-06-30T00:36:40.809Z,60.08
2018-06-30T00:41:43.813Z,60.45
2018-06-30T00:46:46.874Z,59.30
2018-06-30T00:51:49.873Z,58.92
2018-06-30T00:56:52.945Z,58.49
2018-06-30T01:01:56.302Z,58.60
2018-06-30T01:06:59.789Z,58.54
2018-06-30T01:12:03.181Z,58.50
2018-06-30T01:17:06.545Z,59.22
2018-06-30T01:22:10.014Z,60.08
2018-06-30T01:27:13.005Z,59.68
2018-06-30T01:32:16.026Z,59.16
2018-06-30T01:37:19.833Z,57.87
2018-06-30T01:42:22.866Z,56.67
2018-06-30T01:47:25.909Z,56.59
2018-06-30T01:52:28.920Z,57.24
2018-06-30T01:57:31.900Z,58.04
2018-06-30T02:02:34.913Z,58.61
2018-06-30T02:07:37.904Z,58.54
2018-06-30T02:12:40.945Z,59.19
2018-06-30T02:17:43.991Z,58.66
2018-06-30T02:22:46.981Z,58.32
2018-06-30T02:27:50.019Z,58.19
2018-06-30T02:32:53.061Z,58.69
2018-06-30T02:37:56.165Z,58.36
2018-06-30T02:42:59.291Z,58.80
2018-06-30T02:48:02.297Z,58.28
2018-06-30T02:53:05.427Z,57.99
2018-06-30T02:58:08.487Z,58.35
2018-06-30T03:03:11.502Z,58.06
2018-06-30T03:08:14.652Z,57.49
2018-06-30T03:13:17.761Z,56.68
2018-06-30T03:18:20.849Z,56.81
2018-06-30T03:23:23.833Z,56.70
2018-06-30T03:28:26.834Z,56.64
2018-06-30T03:33:29.841Z,55.86
2018-06-30T03:38:32.864Z,56.06
2018-06-30T03:43:35.856Z,54.96
2018-06-30T03:48:38.855Z,54.92
2018-06-30T03:53:41.953Z,55.08
2018-06-30T03:58:44.949Z,55.12
2018-06-30T04:03:48.007Z,55.37
2018-06-30T04:08:50.998Z,55.51
2018-06-30T04:13:54.058Z,55.05
2018-06-30T04:19:01.617Z,54.14
2018-06-30T04:24:04.633Z,53.68
2018-06-30T04:29:07.653Z,54.04
2018-06-30T04:34:10.657Z,53.58
2018-06-30T04:39:13.686Z,53.49
2018-06-30T04:44:16.694Z,53.99
2018-06-30T04:49:19.681Z,53.23
2018-06-30T04:54:22.674Z,52.65
2018-06-30T04:59:25.761Z,52.51
2018-06-30T05:04:29.485Z,52.22
2018-06-30T05:09:32.493Z,51.52
2018-06-30T05:14:35.532Z,50.96
2018-06-30T05:19:39.596Z,51.05
2018-06-30T05:24:42.801Z,50.98
2018-06-30T05:29:45.810Z,50.28
2018-06-30T05:34:50.120Z,49.32
2018-06-30T05:39:54.715Z,49.39
2018-06-30T05:45:00.529Z,48.72
2018-06-30T05:50:03.833Z,48.09
2018-06-30T05:55:06.901Z,48.05
2018-06-30T06:00:10.106Z,47.66
2018-06-30T06:05:13.149Z,47.65
2018-06-30T06:10:16.215Z,46.87
2018-06-30T06:15:19.245Z,47.17
2018-06-30T06:20:22.313Z,45.96
2018-06-30T06:25:25.313Z,45.21
2018-06-30T06:30:28.381Z,45.48
2018-06-30T06:35:31.410Z,44.99
2018-06-30T06:40:34.508Z,44.05
2018-06-30T06:45:37.542Z,43.76
2018-06-30T06:50:40.553Z,43.12
2018-06-30T06:55:43.566Z,42.03
2018-06-30T07:00:46.614Z,42.45
2018-06-30T07:05:49.654Z,42.04
2018-06-30T07:10:52.647Z,40.24
2018-06-30T07:15:55.701Z,40.33
2018-06-30T07:20:58.693Z,38.56
2018-06-30T07:26:01.736Z,39.40
2018-06-30T07:31:04.743Z,38.82
2018-06-30T07:36:07.725Z,38.79
2018-06-30T07:41:10.736Z,39.17
2018-06-30T07:46:13.737Z,36.96
2018-06-30T07:51:16.745Z,37.18
2018-06-30T07:56:19.862Z,37.98
2018-06-30T08:01:23.006Z,36.57
2018-06-30T08:06:26.055Z,36.10
2018-06-30T08:11:29.037Z,35.88
2018-06-30T08:16:32.035Z,35.49
2018-06-30T08:21:35.069Z,34.61
2018-06-30T08:26:38.143Z,34.26
2018-06-30T08:31:41.149Z,34.06
2018-06-30T08:36:44.217Z,33.70
2018-06-30T08:41:47.294Z,33.21
2018-06-30T08:46:50.416Z,32.91
2018-06-30T08:51:53.445Z,32.91
2018-06-30T08:56:56.516Z,32.51
2018-06-30T09:01:59.513Z,32.79
2018-06-30T09:07:02.613Z,32.32
2018-06-30T09:12:06.242Z,33.04
2018-06-30T09:17:09.251Z,32.30
2018-06-30T09:22:12.230Z,31.36
2018-06-30T09:27:15.256Z,32.00
2018-06-30T09:32:18.238Z,31.70
2018-06-30T09:37:21.261Z,32.23
2018-06-30T09:42:24.265Z,31.33
2018-06-30T09:47:27.362Z,31.68
2018-06-30T09:52:30.345Z,30.42
2018-06-30T09:57:33.348Z,30.41
2018-06-30T10:02:36.484Z,30.64
2018-06-30T10:07:39.477Z,31.50
2018-06-30T10:12:42.481Z,30.42
2018-06-30T10:17:45.793Z,30.54
2018-06-30T10:22:48.805Z,30.07
2018-06-30T10:27:51.802Z,29.35
2018-06-30T10:32:54.844Z,29.82
2018-06-30T10:37:57.865Z,29.22
2018-06-30T10:43:00.841Z,28.94
2018-06-30T10:48:13.983Z,28.86
2018-06-30T10:53:17.361Z,29.41
2018-06-30T10:58:20.649Z,28.19
2018-06-30T11:03:23.673Z,28.17
2018-06-30T11:08:26.773Z,28.56
2018-06-30T11:13:29.752Z,29.57
2018-06-30T11:18:32.967Z,28.83
2018-06-30T11:23:36.037Z,28.79
2018-06-30T11:28:39.015Z,27.86
2018-06-30T11:33:41.990Z,28.14
2018-06-30T11:38:44.989Z,27.01
2018-06-30T11:43:48.053Z,27.87
2018-06-30T11:48:51.092Z,28.05
2018-06-30T11:53:54.153Z,27.98
2018-06-30T11:58:57.186Z,28.76
2018-06-30T12:04:00.355Z,27.39
2018-06-30T12:09:06.800Z,27.96
2018-06-30T12:14:09.910Z,27.77
2018-06-30T12:19:12.905Z,26.33
2018-06-30T12:24:16.036Z,27.03
2018-06-30T12:29:19.097Z,26.15
2018-06-30T12:34:23.448Z,26.29
2018-06-30T12:39:26.541Z,28.07
2018-06-30T12:44:29.561Z,26.98
2018-06-30T12:49:32.545Z,25.72
2018-06-30T12:54:35.751Z,25.88
2018-06-30T12:59:38.609Z,25.72
2018-06-30T13:04:41.656Z,25.96
2018-06-30T13:09:45.119Z,24.48
2018-06-30T13:14:48.221Z,24.71
2018-06-30T13:19:51.292Z,24.88
2018-06-30T13:24:54.737Z,23.42
2018-06-30T13:29:57.749Z,23.41
2018-06-30T13:35:00.727Z,23.36
2018-06-30T13:40:03.958Z,23.91
2018-06-30T13:45:08.491Z,24.06
2018-06-30T13:50:11.633Z,23.57
2018-06-30T13:55:14.682Z,22.96
2018-06-30T14:00:17.770Z,22.40
2018-06-30T14:05:20.790Z,21.78
2018-06-30T14:10:23.822Z,22.19
2018-06-30T14:15:26.878Z,21.86
2018-06-30T14:20:29.993Z,22.24
2018-06-30T14:25:33.014Z,22.37
2018-06-30T14:30:36.091Z,21.42
2018-06-30T14:35:39.167Z,21.63
2018-06-30T14:40:42.171Z,21.19
2018-06-30T14:45:45.425Z,20.86
2018-06-30T14:50:48.445Z,22.30
2018-06-30T14:55:51.639Z,21.20
2018-06-30T15:00:54.622Z,22.11
2018-06-30T15:05:57.682Z,21.14
2018-06-30T15:11:00.699Z,20.91
2018-06-30T15:16:03.951Z,21.61
2018-06-30T15:21:07.195Z,21.04
2018-06-30T15:26:10.301Z,20.57
2018-06-30T15:31:13.317Z,21.22
2018-06-30T15:36:16.339Z,20.95
2018-06-30T15:41:19.482Z,20.84
2018-06-30T15:46:22.567Z,20.87
2018-06-30T15:51:25.585Z,21.31
2018-06-30T15:56:28.606Z,21.30
2018-06-30T16:01:31.705Z,21.98
2018-06-30T16:06:34.732Z,22.50
2018-06-30T16:11:37.781Z,21.81
2018-06-30T16:16:40.798Z,22.08
2018-06-30T16:21:43.806Z,20.96
2018-06-30T16:26:46.834Z,21.85
2018-06-30T16:31:49.845Z,22.18
2018-06-30T16:36:52.837Z,21.29
2018-06-30T16:41:55.870Z,21.55
2018-06-30T16:46:58.950Z,21.51
2018-06-30T16:52:02.017Z,21.80
2018-06-30T16:57:05.246Z,22.32
2018-06-30T17:02:08.257Z,22.19
2018-06-30T17:07:11.295Z,22.04
2018-06-30T17:12:14.328Z,22.66
2018-06-30T17:17:17.383Z,23.02
2018-06-30T17:22:20.397Z,23.00
2018-06-30T17:27:23.397Z,23.33
2018-06-30T17:32:26.420Z,23.84
2018-06-30T17:37:29.424Z,23.98
2018-06-30T17:42:32.449Z,24.33
2018-06-30T17:47:35.474Z,24.86
2018-06-30T17:52:38.577Z,24.50
2018-06-30T17:57:41.673Z,25.11
2018-06-30T18:02:44.706Z,24.54
2018-06-30T18:07:47.774Z,25.42
2018-06-30T18:12:53.128Z,24.86
2018-06-30T18:17:58.044Z,25.46
2018-06-30T18:23:01.398Z,26.23
2018-06-30T18:28:04.620Z,26.39
2018-06-30T18:33:07.709Z,26.14
2018-06-30T18:38:10.906Z,26.66
2018-06-30T18:43:13.909Z,27.46
2018-06-30T18:48:16.989Z,27.30
2018-06-30T18:53:20.157Z,28.07
2018-06-30T18:58:23.483Z,28.52
2018-06-30T19:03:26.489Z,29.04
2018-06-30T19:08:29.561Z,29.56
2018-06-30T19:13:32.577Z,29.37
2018-06-30T19:18:35.593Z,30.07
2018-06-30T19:23:38.606Z,30.11
2018-06-30T19:28:41.618Z,30.33
2018-06-30T19:33:44.637Z,30.55
2018-06-30T19:38:47.697Z,30.71
2018-06-30T19:43:51.101Z,31.50
2018-06-30T19:48:54.081Z,31.99
2018-06-30T19:53:57.083Z,32.53
2018-06-30T19:59:00.097Z,33.01
2018-06-30T20:04:03.217Z,33.44
2018-06-30T20:09:08.058Z,33.68
2018-06-30T20:14:11.069Z,34.70
2018-06-30T20:19:14.229Z,34.93
2018-06-30T20:24:17.278Z,35.43
2018-06-30T20:29:20.396Z,34.91
2018-06-30T20:34:23.404Z,35.37
2018-06-30T20:39:26.461Z,35.04
2018-06-30T20:44:29.450Z,35.14
2018-06-30T20:49:32.558Z,35.52
2018-06-30T20:54:35.625Z,35.60
2018-06-30T20:59:38.630Z,36.39
2018-06-30T21:04:41.670Z,36.83
2018-06-30T21:09:44.745Z,37.73
2018-06-30T21:14:47.769Z,37.08
2018-06-30T21:19:50.892Z,36.93
2018-06-30T21:24:53.985Z,37.23
2018-06-30T21:29:58.620Z,38.09
2018-06-30T21:35:03.641Z,38.19
2018-06-30T21:40:06.746Z,37.46
2018-06-30T21:45:09.836Z,37.86
2018-06-30T21:50:13.041Z,38.02
2018-06-30T21:55:16.117Z,37.96
2018-06-30T22:01:40.154Z,38.64
2018-06-30T22:06:43.584Z,38.72
2018-06-30T22:11:46.596Z,39.71
2018-06-30T22:16:49.609Z,39.56
2018-06-30T22:21:52.685Z,40.06
2018-06-30T22:26:55.786Z,40.03
2018-06-30T22:31:58.793Z,40.34
2018-06-30T22:37:01.837Z,40.96
2018-06-30T22:42:04.941Z,41.47
2018-06-30T22:47:08.207Z,41.93
2018-06-30T22:52:11.177Z,41.22
2018-06-30T22:57:14.179Z,41.35
2018-06-30T23:02:17.185Z,42.04
2018-06-30T23:07:20.202Z,41.84
2018-06-30T23:12:23.244Z,42.21
2018-06-30T23:17:26.246Z,42.19
2018-06-30T23:23:02.489Z,41.98
2018-06-30T23:28:05.625Z,42.96
2018-06-30T23:33:08.645Z,42.23
2018-06-30T23:38:11.649Z,42.89
2018-06-30T23:43:14.657Z,43.22
2018-06-30T23:48:17.676Z,43.17
2018-06-30T23:53:20.669Z,43.65
2018-06-30T23:58:23.645Z,44.08
